createdAt,value
2022-09-21T00:00:50.857Z,98.81
2022-09-21T00:03:17.745Z,98.98
2022-09-21T00:07:16.624Z,98.84
2022-09-21T00:09:43.240Z,99.01
2022-09-21T00:12:10.119Z,99.02
2022-09-21T00:14:36.876Z,98.95
2022-09-21T00:17:03.511Z,99.08
2022-09-21T00:19:30.551Z,99.21
2022-09-21T00:21:57.475Z,99.16
2022-09-21T00:24:24.168Z,99.19
2022-09-21T00:26:50.799Z,99.19
2022-09-21T00:29:17.718Z,99.33
2022-09-21T00:31:44.493Z,99.18
2022-09-21T00:34:11.133Z,99.06
2022-09-21T00:36:37.915Z,99.12
2022-09-21T00:39:07.363Z,99.12
2022-09-21T00:41:34.207Z,99.05
2022-09-21T00:44:16.098Z,99.29
2022-09-21T00:46:42.850Z,99.23
2022-09-21T00:49:09.477Z,99.23
2022-09-21T00:51:36.711Z,99.30
2022-09-21T00:54:07.625Z,99.30
2022-09-21T00:56:34.456Z,99.29
2022-09-21T00:59:01.169Z,99.31
2022-09-21T01:01:27.842Z,99.36
2022-09-21T01:03:57.273Z,99.38
2022-09-21T01:06:24.600Z,99.48
2022-09-21T01:08:53.479Z,99.41
2022-09-21T01:11:30.770Z,99.45
2022-09-21T01:14:07.847Z,99.55
2022-09-21T01:16:44.413Z,99.45
2022-09-21T01:19:45.277Z,99.60
2022-09-21T01:22:38.258Z,99.69
2022-09-21T01:25:49.649Z,99.71
2022-09-21T01:28:41.829Z,99.89
2022-09-21T01:31:12.067Z,99.85
2022-09-21T01:33:45.663Z,99.89
2022-09-21T01:36:14.168Z,99.91
2022-09-21T01:38:50.383Z,99.94
2022-09-21T01:41:19.557Z,99.88
2022-09-21T01:43:48.204Z,99.81
2022-09-21T01:46:17.301Z,99.83
2022-09-21T01:48:45.803Z,99.88
2022-09-21T01:51:14.919Z,99.85
2022-09-21T01:53:44.415Z,99.92
2022-09-21T01:56:12.643Z,99.91
2022-09-21T01:58:47.907Z,99.96
2022-09-21T02:01:16.932Z,99.89
2022-09-21T02:03:51.681Z,99.77
2022-09-21T02:06:18.527Z,99.88
2022-09-21T02:08:45.688Z,99.88
2022-09-21T02:11:13.515Z,99.89
2022-09-21T02:13:43.146Z,99.91
2022-09-21T02:16:12.326Z,99.95
2022-09-21T02:19:18.028Z,99.96
2022-09-21T02:22:03.932Z,99.89
2022-09-21T02:24:43.866Z,99.88
2022-09-21T02:27:13.574Z,99.87
2022-09-21T02:29:50.924Z,99.86
2022-09-21T02:32:23.828Z,99.84
2022-09-21T02:34:53.688Z,99.95
2022-09-21T02:37:23.960Z,99.98
2022-09-21T02:39:59.547Z,99.97
2022-09-21T02:42:28.598Z,99.84
2022-09-21T02:45:05.879Z,99.80
2022-09-21T02:47:43.210Z,99.92
2022-09-21T02:50:13.117Z,99.98
2022-09-21T02:52:40.781Z,99.92
2022-09-21T02:55:07.986Z,99.90
2022-09-21T02:57:34.772Z,99.66
2022-09-21T03:00:01.501Z,99.53
2022-09-21T03:02:42.337Z,99.56
2022-09-21T03:05:09.400Z,99.64
2022-09-21T03:07:36.192Z,99.59
2022-09-21T03:10:02.920Z,99.59
2022-09-21T03:12:29.825Z,99.43
2022-09-21T03:14:56.468Z,99.36
2022-09-21T03:17:23.191Z,99.27
2022-09-21T03:19:49.880Z,99.31
2022-09-21T03:22:17.925Z,99.32
2022-09-21T03:24:47.617Z,99.18
2022-09-21T03:27:18.751Z,99.18
2022-09-21T03:29:45.738Z,99.07
2022-09-21T03:32:12.715Z,99.08
2022-09-21T03:34:39.475Z,99.12
2022-09-21T03:37:06.977Z,98.96
2022-09-21T03:39:33.818Z,98.95
2022-09-21T03:42:00.895Z,98.79
2022-09-21T03:44:27.666Z,98.76
2022-09-21T03:46:54.377Z,98.91
2022-09-21T03:49:21.117Z,98.94
2022-09-21T03:51:47.897Z,98.88
2022-09-21T03:54:14.884Z,98.91
2022-09-21T03:56:41.819Z,98.83
2022-09-21T03:59:13.172Z,98.90
2022-09-21T04:01:40.844Z,98.94
2022-09-21T04:04:07.750Z,98.95
2022-09-21T04:06:34.535Z,98.96
2022-09-21T04:09:03.005Z,98.95
2022-09-21T04:11:30.170Z,98.92
2022-09-21T04:13:57.369Z,98.88
2022-09-21T04:16:25.469Z,98.77
2022-09-21T04:18:52.293Z,98.88
2022-09-21T04:21:19.352Z,98.81
2022-09-21T04:23:46.170Z,98.86
2022-09-21T04:26:27.121Z,98.64
2022-09-21T04:28:54.083Z,98.44
2022-09-21T04:31:21.367Z,98.28
2022-09-21T04:33:49.649Z,98.47
2022-09-21T04:36:17.690Z,98.28
2022-09-21T04:38:44.881Z,98.17
2022-09-21T04:41:11.993Z,98.18
2022-09-21T04:43:41.490Z,98.13
2022-09-21T04:46:09.586Z,98.13
2022-09-21T04:48:36.427Z,98.12
2022-09-21T04:51:03.193Z,98.02
2022-09-21T04:53:30.363Z,97.93
2022-09-21T04:55:57.135Z,97.97
2022-09-21T04:58:24.682Z,97.90
2022-09-21T05:00:52.283Z,98.05
2022-09-21T05:03:19.243Z,98.03
2022-09-21T05:05:49.739Z,97.95
2022-09-21T05:08:16.842Z,97.83
2022-09-21T05:10:44.134Z,97.88
2022-09-21T05:13:10.901Z,97.76
2022-09-21T05:15:38.885Z,97.85
2022-09-21T05:18:05.584Z,97.83
2022-09-21T05:20:32.485Z,97.98
2022-09-21T05:23:02.399Z,98.13
2022-09-21T05:25:29.315Z,98.15
2022-09-21T05:27:56.129Z,98.36
2022-09-21T05:30:23.079Z,98.33
2022-09-21T05:32:57.149Z,98.41
2022-09-21T05:35:29.941Z,98.49
2022-09-21T05:38:18.428Z,98.56
2022-09-21T05:40:47.782Z,98.50
2022-09-21T05:43:14.905Z,98.81
2022-09-21T05:45:47.601Z,99.01
2022-09-21T05:48:19.240Z,99.29
2022-09-21T05:50:50.120Z,99.30
2022-09-21T05:53:29.248Z,99.41
2022-09-21T05:56:00.939Z,99.64
2022-09-21T05:58:30.724Z,99.63
2022-09-21T06:01:01.042Z,99.70
2022-09-21T06:03:32.409Z,99.81
2022-09-21T06:05:59.423Z,99.80
2022-09-21T06:08:26.417Z,99.98
2022-09-21T06:10:53.253Z,99.95
2022-09-21T06:13:19.947Z,99.89
2022-09-21T06:15:46.671Z,99.98
2022-09-21T06:18:17.722Z,100.00
2022-09-21T06:20:45.265Z,100.00
2022-09-21T06:23:12.652Z,100.00
2022-09-21T06:25:39.436Z,100.00
2022-09-21T06:28:07.049Z,100.00
2022-09-21T06:30:36.717Z,100.00
2022-09-21T06:33:04.520Z,99.99
2022-09-21T06:35:31.846Z,99.99
2022-09-21T06:38:16.732Z,99.99
2022-09-21T06:40:43.591Z,99.86
2022-09-21T06:43:10.383Z,99.90
2022-09-21T06:45:37.094Z,99.95
2022-09-21T06:48:04.016Z,99.94
2022-09-21T06:50:30.789Z,99.57
2022-09-21T06:52:59.752Z,99.31
2022-09-21T06:55:26.568Z,99.48
2022-09-21T06:57:53.411Z,99.17
2022-09-21T07:00:20.090Z,98.87
2022-09-21T07:02:46.900Z,99.07
2022-09-21T07:05:13.583Z,98.78
2022-09-21T07:07:40.560Z,98.68
2022-09-21T07:10:13.147Z,98.80
2022-09-21T07:12:41.722Z,98.59
2022-09-21T07:15:10.426Z,98.62
2022-09-21T07:17:38.480Z,98.67
2022-09-21T07:20:05.877Z,98.80
2022-09-21T07:22:32.840Z,98.84
2022-09-21T07:24:59.777Z,98.87
2022-09-21T07:27:26.693Z,99.18
2022-09-21T07:29:53.526Z,99.61
2022-09-21T07:32:20.285Z,99.79
2022-09-21T07:34:46.967Z,99.74
2022-09-21T07:37:14.498Z,99.47
2022-09-21T07:39:41.322Z,99.39
2022-09-21T07:42:08.091Z,99.45
2022-09-21T07:44:34.699Z,99.62
2022-09-21T07:47:03.531Z,99.82
2022-09-21T07:49:30.358Z,100.00
2022-09-21T07:52:01.409Z,100.00
2022-09-21T07:54:30.548Z,100.00
2022-09-21T07:57:15.820Z,100.00
2022-09-21T07:59:42.609Z,100.00
2022-09-21T08:02:09.389Z,100.00
2022-09-21T08:04:36.356Z,100.00
2022-09-21T08:07:03.284Z,99.98
2022-09-21T08:09:30.051Z,100.00
2022-09-21T08:11:57.664Z,99.97
2022-09-21T08:14:26.534Z,99.85
2022-09-21T08:16:53.685Z,99.97
2022-09-21T08:19:20.991Z,99.81
2022-09-21T08:21:54.924Z,99.78
2022-09-21T08:24:25.846Z,99.76
2022-09-21T08:26:52.897Z,99.78
2022-09-21T08:29:19.723Z,99.92
2022-09-21T08:31:46.908Z,99.90
2022-09-21T08:34:14.353Z,99.89
2022-09-21T08:36:41.148Z,99.63
2022-09-21T08:39:08.555Z,99.03
2022-09-21T08:41:41.326Z,98.89
2022-09-21T08:44:15.244Z,98.77
2022-09-21T08:46:42.135Z,98.27
2022-09-21T08:49:13.918Z,97.60
2022-09-21T08:51:55.619Z,97.56
2022-09-21T08:54:29.332Z,97.31
2022-09-21T08:57:11.521Z,97.22
2022-09-21T08:59:39.248Z,97.00
2022-09-21T09:02:38.805Z,96.83
2022-09-21T09:05:24.821Z,97.43
2022-09-21T09:08:19.941Z,97.38
2022-09-21T09:11:40.219Z,97.67
2022-09-21T09:14:14.896Z,96.90
2022-09-21T09:17:06.193Z,96.46
2022-09-21T09:19:38.256Z,96.22
2022-09-21T09:22:05.129Z,95.84
2022-09-21T09:24:33.679Z,95.73
2022-09-21T09:27:22.262Z,94.87
2022-09-21T09:29:53.841Z,94.93
2022-09-21T09:32:20.913Z,95.15
2022-09-21T09:35:05.367Z,94.99
2022-09-21T09:37:34.171Z,93.93
2022-09-21T09:40:01.300Z,93.37
2022-09-21T09:42:37.127Z,93.70
2022-09-21T09:45:13.340Z,93.38
2022-09-21T09:48:16.035Z,92.79
2022-09-21T09:50:42.922Z,92.46
2022-09-21T09:53:12.779Z,92.41
2022-09-21T09:55:41.144Z,91.69
2022-09-21T09:58:19.117Z,91.68
2022-09-21T10:00:54.207Z,92.04
2022-09-21T10:03:23.120Z,92.43
2022-09-21T10:05:50.085Z,92.56
2022-09-21T10:08:39.299Z,92.34
2022-09-21T10:11:06.139Z,92.59
2022-09-21T10:13:39.755Z,92.73
2022-09-21T10:16:19.696Z,92.35
2022-09-21T10:18:52.470Z,91.74
2022-09-21T10:21:20.535Z,91.47
2022-09-21T10:23:53.726Z,90.99
2022-09-21T10:26:20.659Z,90.31
2022-09-21T10:29:01.203Z,88.73
2022-09-21T10:31:31.026Z,88.89
2022-09-21T10:34:03.883Z,88.16
2022-09-21T10:36:37.034Z,87.58
2022-09-21T10:39:18.763Z,87.64
2022-09-21T10:42:03.951Z,88.38
2022-09-21T10:44:50.724Z,88.48
2022-09-21T10:47:37.222Z,88.61
2022-09-21T10:50:06.174Z,88.29
2022-09-21T10:52:52.271Z,88.15
2022-09-21T10:55:20.850Z,88.48
2022-09-21T10:57:47.740Z,88.73
2022-09-21T11:00:35.469Z,88.62
2022-09-21T11:03:30.150Z,88.53
2022-09-21T11:06:04.718Z,88.73
2022-09-21T11:08:47.379Z,88.56
2022-09-21T11:11:30.299Z,88.33
2022-09-21T11:14:18.367Z,88.35
2022-09-21T11:16:54.833Z,88.63
2022-09-21T11:19:35.462Z,88.57
2022-09-21T11:22:05.198Z,88.38
2022-09-21T11:25:11.255Z,88.15
2022-09-21T11:27:40.286Z,88.05
2022-09-21T11:30:13.405Z,88.64
2022-09-21T11:32:52.986Z,89.57
2022-09-21T11:36:04.875Z,89.89
2022-09-21T11:38:38.796Z,91.16
2022-09-21T11:41:21.959Z,91.72
2022-09-21T11:43:51.480Z,92.06
2022-09-21T11:46:27.285Z,92.31
2022-09-21T11:49:03.190Z,92.82
2022-09-21T11:51:38.372Z,93.40
2022-09-21T11:54:20.720Z,93.70
2022-09-21T11:57:01.231Z,93.78
2022-09-21T12:00:02.271Z,93.77
2022-09-21T12:02:55.956Z,92.64
2022-09-21T12:05:45.449Z,91.29
2022-09-21T12:08:36.458Z,90.65
2022-09-21T12:11:14.105Z,88.92
2022-09-21T12:13:50.598Z,87.77
2022-09-21T12:16:39.061Z,87.52
2022-09-21T12:19:24.001Z,85.90
2022-09-21T12:24:26.547Z,86.08
2022-09-21T12:26:57.597Z,86.65
2022-09-21T12:29:37.167Z,85.61
2022-09-21T12:32:25.371Z,84.93
2022-09-21T12:34:56.301Z,84.82
2022-09-21T12:37:46.298Z,83.91
2022-09-21T12:40:28.461Z,83.99
2022-09-21T12:43:03.791Z,83.32
2022-09-21T12:45:34.769Z,82.74
2022-09-21T12:48:06.434Z,81.65
2022-09-21T12:50:43.161Z,81.50
2022-09-21T12:53:17.207Z,82.14
2022-09-21T12:56:18.299Z,82.71
2022-09-21T12:59:03.159Z,83.56
2022-09-21T13:01:31.851Z,84.61
2022-09-21T13:04:12.372Z,85.40
2022-09-21T13:07:02.134Z,86.36
2022-09-21T13:09:28.918Z,87.39
2022-09-21T13:11:56.839Z,87.91
2022-09-21T13:14:36.306Z,88.46
2022-09-21T13:17:04.657Z,89.06
2022-09-21T13:19:33.541Z,89.44
2022-09-21T13:22:16.113Z,89.93
2022-09-21T13:24:42.950Z,90.20
2022-09-21T13:27:09.565Z,90.73
2022-09-21T13:29:38.085Z,90.82
2022-09-21T13:32:14.070Z,91.54
2022-09-21T13:34:44.429Z,91.78
2022-09-21T13:37:11.187Z,92.27
2022-09-21T13:39:48.579Z,92.48
2022-09-21T13:42:30.884Z,92.90
2022-09-21T13:45:18.739Z,93.09
2022-09-21T13:47:47.163Z,93.10
2022-09-21T13:50:23.523Z,93.00
2022-09-21T13:53:20.048Z,92.93
2022-09-21T13:55:51.076Z,92.99
2022-09-21T13:58:21.091Z,93.01
2022-09-21T14:00:56.378Z,92.44
2022-09-21T14:03:39.891Z,92.23
2022-09-21T14:06:15.801Z,91.33
2022-09-21T14:08:54.932Z,90.83
2022-09-21T14:11:31.687Z,90.55
2022-09-21T14:14:09.581Z,90.06
2022-09-21T14:16:39.564Z,89.57
2022-09-21T14:19:15.457Z,89.30
2022-09-21T14:22:05.482Z,88.87
2022-09-21T14:24:42.792Z,87.69
2022-09-21T14:27:18.585Z,87.10
2022-09-21T14:29:48.775Z,86.18
2022-09-21T14:32:19.397Z,85.55
2022-09-21T14:34:47.691Z,85.48
2022-09-21T14:37:36.738Z,84.05
2022-09-21T14:40:17.069Z,83.91
2022-09-21T14:42:44.436Z,83.81
2022-09-21T14:45:18.134Z,83.08
2022-09-21T14:48:03.198Z,83.66
2022-09-21T14:50:47.893Z,83.68
2022-09-21T14:53:23.997Z,83.35
2022-09-21T14:56:10.832Z,83.22
2022-09-21T14:59:27.954Z,83.20
2022-09-21T15:02:16.390Z,83.25
2022-09-21T15:05:14.041Z,83.33
2022-09-21T15:08:21.349Z,83.71
2022-09-21T15:10:56.901Z,83.96
2022-09-21T15:14:01.108Z,84.04
2022-09-21T15:16:36.768Z,83.98
2022-09-21T15:19:37.320Z,83.99
2022-09-21T15:22:16.654Z,84.25
2022-09-21T15:24:57.292Z,84.16
2022-09-21T15:27:27.820Z,84.29
2022-09-21T15:29:55.616Z,84.40
2022-09-21T15:32:38.976Z,84.28
2022-09-21T15:35:32.733Z,84.35
2022-09-21T15:38:00.896Z,84.67
2022-09-21T15:40:35.610Z,84.51
2022-09-21T15:43:11.542Z,84.83
2022-09-21T15:45:59.273Z,85.10
2022-09-21T15:48:27.386Z,85.50
2022-09-21T15:50:58.235Z,85.31
2022-09-21T15:53:26.658Z,85.77
2022-09-21T15:55:55.260Z,86.27
2022-09-21T15:58:37.301Z,86.28
2022-09-21T16:01:11.159Z,86.15
2022-09-21T16:03:39.042Z,86.14
2022-09-21T16:06:29.026Z,86.24
2022-09-21T16:08:55.913Z,86.35
2022-09-21T16:11:29.852Z,86.58
2022-09-21T16:14:37.759Z,86.89
2022-09-21T16:17:11.617Z,87.03
2022-09-21T16:19:59.103Z,87.32
2022-09-21T16:22:29.500Z,87.52
2022-09-21T16:25:00.749Z,87.40
2022-09-21T16:27:29.267Z,87.85
2022-09-21T16:29:56.988Z,87.75
2022-09-21T16:32:32.066Z,87.72
2022-09-21T16:35:29.409Z,87.83
2022-09-21T16:37:59.079Z,87.98
2022-09-21T16:40:27.087Z,88.15
2022-09-21T16:42:54.350Z,88.14
2022-09-21T16:45:31.862Z,88.21
2022-09-21T16:47:59.647Z,88.64
2022-09-21T16:50:26.679Z,88.52
2022-09-21T16:52:53.633Z,88.21
2022-09-21T16:55:22.427Z,88.23
2022-09-21T16:57:51.255Z,88.53
2022-09-21T17:00:20.750Z,88.27
2022-09-21T17:02:48.260Z,88.38
2022-09-21T17:05:18.188Z,88.45
2022-09-21T17:07:55.382Z,88.56
2022-09-21T17:10:23.783Z,88.53
2022-09-21T17:12:52.019Z,88.73
2022-09-21T17:15:18.842Z,88.63
2022-09-21T17:17:45.711Z,88.80
2022-09-21T17:20:20.845Z,88.86
2022-09-21T17:22:48.311Z,89.05
2022-09-21T17:25:15.310Z,88.81
2022-09-21T17:27:45.247Z,89.04
2022-09-21T17:30:13.452Z,88.89
2022-09-21T17:32:42.586Z,88.95
2022-09-21T17:35:19.049Z,88.93
2022-09-21T17:37:46.069Z,88.60
2022-09-21T17:40:13.799Z,88.86
2022-09-21T17:42:43.239Z,88.60
2022-09-21T17:45:21.627Z,88.40
2022-09-21T17:47:50.518Z,88.47
2022-09-21T17:50:20.976Z,88.35
2022-09-21T17:53:06.357Z,88.40
2022-09-21T17:55:33.544Z,88.57
2022-09-21T17:58:23.392Z,88.91
2022-09-21T18:01:28.079Z,89.30
2022-09-21T18:03:55.164Z,89.57
2022-09-21T18:06:22.968Z,89.79
2022-09-21T18:08:50.642Z,89.84
2022-09-21T18:11:48.070Z,89.84
2022-09-21T18:14:41.117Z,89.67
2022-09-21T18:17:26.630Z,89.76
2022-09-21T18:20:13.431Z,89.77
2022-09-21T18:22:59.040Z,89.97
2022-09-21T18:25:47.872Z,89.80
2022-09-21T18:28:40.267Z,89.92
2022-09-21T18:31:25.994Z,89.82
2022-09-21T18:34:00.332Z,89.95
2022-09-21T18:36:31.771Z,89.81
2022-09-21T18:39:23.695Z,89.88
2022-09-21T18:42:06.416Z,89.60
2022-09-21T18:44:41.900Z,89.40
2022-09-21T18:47:20.516Z,89.03
2022-09-21T18:50:06.098Z,88.81
2022-09-21T18:52:55.265Z,88.74
2022-09-21T18:55:27.427Z,88.50
2022-09-21T18:57:55.771Z,88.54
2022-09-21T19:00:23.537Z,88.77
2022-09-21T19:03:12.654Z,89.14
2022-09-21T19:05:37.799Z,89.58
2022-09-21T19:08:11.029Z,90.04
2022-09-21T19:10:51.846Z,90.32
2022-09-21T19:13:27.863Z,90.48
2022-09-21T19:16:15.820Z,90.59
2022-09-21T19:19:20.143Z,90.88
2022-09-21T19:21:58.419Z,91.07
2022-09-21T19:24:55.483Z,91.36
2022-09-21T19:27:34.350Z,91.69
2022-09-21T19:30:14.728Z,91.92
2022-09-21T19:32:49.388Z,92.05
2022-09-21T19:35:22.091Z,92.21
2022-09-21T19:37:49.321Z,92.23
2022-09-21T19:40:17.353Z,92.44
2022-09-21T19:42:53.865Z,92.60
2022-09-21T19:45:27.907Z,92.66
2022-09-21T19:47:56.877Z,92.65
2022-09-21T19:50:26.715Z,92.59
2022-09-21T19:53:13.665Z,92.40
2022-09-21T19:55:59.197Z,92.39
2022-09-21T19:58:44.392Z,92.15
2022-09-21T20:01:11.645Z,91.84
2022-09-21T20:03:41.319Z,92.09
2022-09-21T20:06:20.944Z,92.01
2022-09-21T20:08:50.832Z,92.15
2022-09-21T20:11:22.510Z,92.23
2022-09-21T20:14:07.976Z,92.37
2022-09-21T20:16:40.451Z,92.43
2022-09-21T20:19:14.739Z,92.52
2022-09-21T20:21:43.745Z,92.56
2022-09-21T20:24:23.884Z,92.49
2022-09-21T20:26:51.191Z,92.51
2022-09-21T20:29:19.536Z,92.56
2022-09-21T20:31:47.924Z,92.45
2022-09-21T20:34:15.532Z,92.41
2022-09-21T20:36:42.219Z,92.37
2022-09-21T20:39:08.905Z,92.36
2022-09-21T20:41:35.716Z,92.53
2022-09-21T20:44:02.520Z,92.51
2022-09-21T20:46:30.024Z,92.50
2022-09-21T20:49:04.476Z,92.68
2022-09-21T20:51:33.922Z,92.77
2022-09-21T20:54:04.631Z,92.98
2022-09-21T20:56:31.441Z,92.79
2022-09-21T20:58:58.123Z,92.96
2022-09-21T21:01:25.016Z,93.04
2022-09-21T21:03:51.819Z,93.06
2022-09-21T21:06:21.496Z,93.36
2022-09-21T21:08:48.237Z,93.32
2022-09-21T21:11:14.825Z,93.22
2022-09-21T21:13:41.800Z,93.58
2022-09-21T21:16:12.025Z,93.35
2022-09-21T21:18:42.515Z,93.31
2022-09-21T21:21:09.399Z,93.31
2022-09-21T21:23:56.431Z,93.27
2022-09-21T21:26:38.197Z,93.31
2022-09-21T21:29:09.801Z,93.38
2022-09-21T21:31:36.451Z,93.10
2022-09-21T21:34:03.244Z,93.15
2022-09-21T21:36:29.844Z,93.05
2022-09-21T21:38:56.623Z,93.08
2022-09-21T21:41:23.482Z,93.00
2022-09-21T21:43:50.149Z,93.10
2022-09-21T21:46:16.888Z,93.12
2022-09-21T21:48:45.653Z,92.94
2022-09-21T21:51:12.816Z,92.91
2022-09-21T21:53:39.891Z,92.91
2022-09-21T21:56:10.650Z,93.04
2022-09-21T21:58:37.415Z,93.02
2022-09-21T22:01:10.909Z,93.01
2022-09-21T22:03:38.268Z,93.06
2022-09-21T22:06:05.237Z,92.94
2022-09-21T22:08:32.490Z,92.78
2022-09-21T22:10:59.740Z,92.82
2022-09-21T22:13:28.929Z,92.79
2022-09-21T22:16:05.956Z,92.82
2022-09-21T22:18:32.985Z,92.84
2022-09-21T22:21:22.892Z,92.85
2022-09-21T22:23:53.869Z,92.94
2022-09-21T22:26:21.137Z,92.93
2022-09-21T22:28:49.438Z,92.88
2022-09-21T22:31:17.672Z,92.65
2022-09-21T22:33:44.667Z,92.53
2022-09-21T22:36:14.428Z,92.34
2022-09-21T22:38:43.042Z,92.32
2022-09-21T22:41:14.316Z,92.06
2022-09-21T22:43:41.013Z,92.07
2022-09-21T22:46:07.878Z,92.12
2022-09-21T22:48:35.253Z,92.00
2022-09-21T22:51:02.209Z,91.97
2022-09-21T22:53:28.909Z,91.83
2022-09-21T22:56:05.599Z,91.65
2022-09-21T22:58:33.034Z,91.35
2022-09-21T23:01:10.458Z,90.77
2022-09-21T23:03:37.918Z,90.48
2022-09-21T23:06:05.781Z,90.48
2022-09-21T23:08:32.679Z,90.36
2022-09-21T23:11:13.259Z,90.35
2022-09-21T23:13:40.262Z,90.47
2022-09-21T23:16:08.422Z,90.52
2022-09-21T23:18:35.217Z,90.44
2022-09-21T23:21:02.849Z,90.52
2022-09-21T23:23:29.690Z,90.54
2022-09-21T23:26:04.489Z,90.76
2022-09-21T23:28:31.271Z,90.95
2022-09-21T23:30:58.514Z,91.10
2022-09-21T23:33:25.219Z,91.19
2022-09-21T23:35:51.936Z,91.21
2022-09-21T23:38:18.615Z,91.11
2022-09-21T23:40:45.384Z,91.19
2022-09-21T23:43:12.040Z,91.32
2022-09-21T23:45:38.725Z,91.42
2022-09-21T23:48:05.430Z,91.44
2022-09-21T23:50:32.067Z,91.38
2022-09-21T23:52:58.745Z,91.41
2022-09-21T23:55:25.426Z,91.58
2022-09-21T23:57:52.124Z,91.53
